sensor_id;sensor_type;location;lat;lon;timestamp;pressure;altitude;pressure_sealevel;temperature;humidity
5966;BME280;3009;43.224;27.976;2022-12-05T00:01:42;101667.66;;;3.77;100.00
5966;BME280;3009;43.224;27.976;2022-12-05T00:04:12;101661.53;;;3.76;100.00
5966;BME280;3009;43.224;27.976;2022-12-05T00:06:41;101685.75;;;3.80;100.00
5966;BME280;3009;43.224;27.976;2022-12-05T00:09:10;101675.25;;;3.85;100.00
5966;BME280;3009;43.224;27.976;2022-12-05T00:11:42;101687.94;;;3.83;100.00
5966;BME280;3009;43.224;27.976;2022-12-05T00:14:11;101687.47;;;3.86;100.00
5966;BME280;3009;43.224;27.976;2022-12-05T00:16:41;101688.66;;;3.90;100.00
5966;BME280;3009;43.224;27.976;2022-12-05T00:19:13;101686.78;;;3.90;100.00
5966;BME280;3009;43.224;27.976;2022-12-05T00:21:42;101679.28;;;3.87;100.00
5966;BME280;3009;43.224;27.976;2022-12-05T00:24:13;101672.59;;;3.85;100.00
5966;BME280;3009;43.224;27.976;2022-12-05T00:26:43;101681.38;;;3.85;100.00
5966;BME280;3009;43.224;27.976;2022-12-05T00:29:11;101673.97;;;3.87;100.00
5966;BME280;3009;43.224;27.976;2022-12-05T00:31:40;101669.38;;;3.83;100.00
5966;BME280;3009;43.224;27.976;2022-12-05T00:34:09;101675.72;;;3.82;100.00
5966;BME280;3009;43.224;27.976;2022-12-05T00:36:37;101686.47;;;3.87;100.00
5966;BME280;3009;43.224;27.976;2022-12-05T00:39:08;101674.13;;;3.93;100.00
5966;BME280;3009;43.224;27.976;2022-12-05T00:41:37;101675.25;;;3.85;100.00
5966;BME280;3009;43.224;27.976;2022-12-05T00:44:07;101674.59;;;3.89;100.00
5966;BME280;3009;43.224;27.976;2022-12-05T00:46:35;101681.25;;;3.92;100.00
5966;BME280;3009;43.224;27.976;2022-12-05T00:49:05;101667.06;;;3.86;100.00
5966;BME280;3009;43.224;27.976;2022-12-05T00:51:36;101671.09;;;3.89;100.00
5966;BME280;3009;43.224;27.976;2022-12-05T00:54:06;101677.66;;;3.86;100.00
5966;BME280;3009;43.224;27.976;2022-12-05T00:56:34;101667.19;;;3.80;100.00
5966;BME280;3009;43.224;27.976;2022-12-05T00:59:04;101666.03;;;3.76;100.00
5966;BME280;3009;43.224;27.976;2022-12-05T01:01:35;101647.00;;;3.79;100.00
5966;BME280;3009;43.224;27.976;2022-12-05T01:04:06;101655.78;;;3.79;100.00
5966;BME280;3009;43.224;27.976;2022-12-05T01:06:35;101665.56;;;3.79;100.00
5966;BME280;3009;43.224;27.976;2022-12-05T01:09:04;101648.63;;;3.80;100.00
5966;BME280;3009;43.224;27.976;2022-12-05T01:11:33;101654.47;;;3.82;100.00
5966;BME280;3009;43.224;27.976;2022-12-05T01:14:07;101666.72;;;3.83;100.00
5966;BME280;3009;43.224;27.976;2022-12-05T01:16:38;101669.03;;;3.79;100.00
5966;BME280;3009;43.224;27.976;2022-12-05T01:19:11;101650.25;;;3.81;100.00
5966;BME280;3009;43.224;27.976;2022-12-05T01:21:40;101660.25;;;3.79;100.00
5966;BME280;3009;43.224;27.976;2022-12-05T01:24:09;101650.47;;;3.79;100.00
5966;BME280;3009;43.224;27.976;2022-12-05T01:26:39;101659.91;;;3.75;100.00
5966;BME280;3009;43.224;27.976;2022-12-05T01:29:08;101648.03;;;3.78;100.00
5966;BME280;3009;43.224;27.976;2022-12-05T01:31:38;101648.16;;;3.83;100.00
5966;BME280;3009;43.224;27.976;2022-12-05T01:34:09;101643.88;;;3.82;100.00
5966;BME280;3009;43.224;27.976;2022-12-05T01:36:38;101647.00;;;3.79;100.00
5966;BME280;3009;43.224;27.976;2022-12-05T01:39:08;101665.69;;;3.84;100.00
5966;BME280;3009;43.224;27.976;2022-12-05T01:41:39;101643.31;;;3.80;100.00
5966;BME280;3009;43.224;27.976;2022-12-05T01:47:16;101627.28;;;3.75;100.00
5966;BME280;3009;43.224;27.976;2022-12-05T01:49:45;101615.50;;;3.70;100.00
5966;BME280;3009;43.224;27.976;2022-12-05T01:52:16;101632.69;;;3.68;100.00
5966;BME280;3009;43.224;27.976;2022-12-05T01:54:47;101628.63;;;3.65;100.00
5966;BME280;3009;43.224;27.976;2022-12-05T01:57:17;101623.69;;;3.69;100.00
5966;BME280;3009;43.224;27.976;2022-12-05T01:59:49;101616.53;;;3.69;100.00
5966;BME280;3009;43.224;27.976;2022-12-05T02:02:19;101608.81;;;3.68;100.00
5966;BME280;3009;43.224;27.976;2022-12-05T02:04:53;101612.16;;;3.63;100.00
5966;BME280;3009;43.224;27.976;2022-12-05T02:07:23;101613.56;;;3.66;100.00
5966;BME280;3009;43.224;27.976;2022-12-05T02:09:52;101616.69;;;3.75;100.00
5966;BME280;3009;43.224;27.976;2022-12-05T02:12:21;101617.38;;;3.70;100.00
5966;BME280;3009;43.224;27.976;2022-12-05T02:14:59;101625.88;;;3.72;100.00
5966;BME280;3009;43.224;27.976;2022-12-05T02:17:46;101612.97;;;3.76;100.00
5966;BME280;3009;43.224;27.976;2022-12-05T02:20:31;101608.94;;;3.73;100.00
5966;BME280;3009;43.224;27.976;2022-12-05T02:26:32;101606.16;;;3.80;100.00
5966;BME280;3009;43.224;27.976;2022-12-05T02:32:04;101595.66;;;3.85;100.00
5966;BME280;3009;43.224;27.976;2022-12-05T02:34:39;101605.00;;;3.87;100.00
5966;BME280;3009;43.224;27.976;2022-12-05T02:37:15;101604.91;;;3.82;100.00
5966;BME280;3009;43.224;27.976;2022-12-05T02:39:50;101614.81;;;3.87;100.00
5966;BME280;3009;43.224;27.976;2022-12-05T02:42:25;101605.47;;;3.84;100.00
5966;BME280;3009;43.224;27.976;2022-12-05T02:44:59;101610.06;;;3.89;100.00
5966;BME280;3009;43.224;27.976;2022-12-05T02:47:33;101628.31;;;3.85;100.00
5966;BME280;3009;43.224;27.976;2022-12-05T02:50:03;101628.31;;;3.85;100.00
5966;BME280;3009;43.224;27.976;2022-12-05T02:52:32;101631.44;;;3.94;100.00
5966;BME280;3009;43.224;27.976;2022-12-05T02:55:02;101620.81;;;3.94;100.00
5966;BME280;3009;43.224;27.976;2022-12-05T02:57:31;101638.78;;;3.92;100.00
5966;BME280;3009;43.224;27.976;2022-12-05T03:00:01;101636.75;;;3.82;100.00
5966;BME280;3009;43.224;27.976;2022-12-05T03:02:32;101635.69;;;3.83;100.00
5966;BME280;3009;43.224;27.976;2022-12-05T03:05:08;101636.50;;;3.84;100.00
5966;BME280;3009;43.224;27.976;2022-12-05T03:07:44;101629.94;;;3.75;100.00
5966;BME280;3009;43.224;27.976;2022-12-05T03:10:16;101656.56;;;3.80;100.00
5966;BME280;3009;43.224;27.976;2022-12-05T03:12:49;101639.16;;;3.84;100.00
5966;BME280;3009;43.224;27.976;2022-12-05T03:15:22;101646.19;;;3.90;100.00
5966;BME280;3009;43.224;27.976;2022-12-05T03:17:56;101640.41;;;3.93;100.00
5966;BME280;3009;43.224;27.976;2022-12-05T03:20:28;101646.66;;;3.87;100.00
5966;BME280;3009;43.224;27.976;2022-12-05T03:23:03;101663.28;;;3.94;100.00
5966;BME280;3009;43.224;27.976;2022-12-05T03:25:34;101647.69;;;3.98;100.00
5966;BME280;3009;43.224;27.976;2022-12-05T03:28:16;101641.22;;;3.94;100.00
5966;BME280;3009;43.224;27.976;2022-12-05T03:30:47;101634.78;;;3.89;100.00
5966;BME280;3009;43.224;27.976;2022-12-05T03:33:22;101645.25;;;3.96;100.00
5966;BME280;3009;43.224;27.976;2022-12-05T03:36:00;101642.94;;;4.12;100.00
5966;BME280;3009;43.224;27.976;2022-12-05T03:38:32;101640.41;;;4.17;100.00
5966;BME280;3009;43.224;27.976;2022-12-05T03:41:06;101633.09;;;4.24;100.00
5966;BME280;3009;43.224;27.976;2022-12-05T03:43:40;101628.16;;;4.16;100.00
5966;BME280;3009;43.224;27.976;2022-12-05T03:46:19;101633.56;;;4.21;100.00
5966;BME280;3009;43.224;27.976;2022-12-05T03:48:54;101635.41;;;4.20;100.00
5966;BME280;3009;43.224;27.976;2022-12-05T03:51:26;101633.00;;;4.19;100.00
5966;BME280;3009;43.224;27.976;2022-12-05T03:53:57;101626.66;;;4.20;100.00
5966;BME280;3009;43.224;27.976;2022-12-05T03:56:30;101628.50;;;4.19;100.00
5966;BME280;3009;43.224;27.976;2022-12-05T03:59:06;101631.38;;;4.18;100.00
5966;BME280;3009;43.224;27.976;2022-12-05T04:01:38;101635.09;;;4.17;100.00
5966;BME280;3009;43.224;27.976;2022-12-05T04:04:15;101664.72;;;4.25;100.00
5966;BME280;3009;43.224;27.976;2022-12-05T04:06:47;101641.88;;;4.24;100.00
5966;BME280;3009;43.224;27.976;2022-12-05T04:09:19;101645.09;;;4.26;100.00
5966;BME280;3009;43.224;27.976;2022-12-05T04:11:56;101644.16;;;4.33;100.00
5966;BME280;3009;43.224;27.976;2022-12-05T04:14:28;101638.75;;;4.28;100.00
5966;BME280;3009;43.224;27.976;2022-12-05T04:17:01;101640.59;;;4.27;100.00
5966;BME280;3009;43.224;27.976;2022-12-05T04:19:37;101650.28;;;4.33;100.00
5966;BME280;3009;43.224;27.976;2022-12-05T04:22:25;101644.31;;;4.26;100.00
5966;BME280;3009;43.224;27.976;2022-12-05T04:24:56;101646.59;;;4.34;100.00
5966;BME280;3009;43.224;27.976;2022-12-05T04:27:47;101647.06;;;4.31;100.00
5966;BME280;3009;43.224;27.976;2022-12-05T04:30:19;101644.72;;;4.35;100.00
5966;BME280;3009;43.224;27.976;2022-12-05T04:32:52;101647.84;;;4.32;100.00
5966;BME280;3009;43.224;27.976;2022-12-05T04:35:31;101646.13;;;4.25;100.00
5966;BME280;3009;43.224;27.976;2022-12-05T04:38:04;101651.50;;;4.14;100.00
5966;BME280;3009;43.224;27.976;2022-12-05T04:40:38;101651.94;;;4.11;100.00
5966;BME280;3009;43.224;27.976;2022-12-05T04:43:09;101652.06;;;4.16;100.00
5966;BME280;3009;43.224;27.976;2022-12-05T04:45:40;101660.81;;;4.16;100.00
5966;BME280;3009;43.224;27.976;2022-12-05T04:48:12;101664.75;;;4.14;100.00
5966;BME280;3009;43.224;27.976;2022-12-05T04:50:44;101658.75;;;4.18;100.00
5966;BME280;3009;43.224;27.976;2022-12-05T04:53:14;101661.63;;;4.17;100.00
5966;BME280;3009;43.224;27.976;2022-12-05T04:55:47;101670.50;;;4.22;100.00
5966;BME280;3009;43.224;27.976;2022-12-05T04:58:18;101682.75;;;4.23;100.00
5966;BME280;3009;43.224;27.976;2022-12-05T05:00:52;101658.97;;;4.17;100.00
5966;BME280;3009;43.224;27.976;2022-12-05T05:03:25;101667.50;;;4.19;100.00
5966;BME280;3009;43.224;27.976;2022-12-05T05:05:56;101660.72;;;4.23;100.00
5966;BME280;3009;43.224;27.976;2022-12-05T05:08:26;101684.59;;;4.23;100.00
5966;BME280;3009;43.224;27.976;2022-12-05T05:11:08;101665.31;;;4.28;100.00
5966;BME280;3009;43.224;27.976;2022-12-05T05:13:38;101663.59;;;4.21;100.00
5966;BME280;3009;43.224;27.976;2022-12-05T05:16:07;101644.88;;;4.16;100.00
5966;BME280;3009;43.224;27.976;2022-12-05T05:18:35;101657.69;;;4.19;100.00
5966;BME280;3009;43.224;27.976;2022-12-05T05:21:05;101662.09;;;4.14;100.00
5966;BME280;3009;43.224;27.976;2022-12-05T05:23:33;101661.03;;;4.15;100.00
5966;BME280;3009;43.224;27.976;2022-12-05T05:26:02;101677.22;;;4.13;100.00
5966;BME280;3009;43.224;27.976;2022-12-05T05:28:30;101668.53;;;4.18;100.00
5966;BME280;3009;43.224;27.976;2022-12-05T05:31:01;101675.94;;;4.16;100.00
5966;BME280;3009;43.224;27.976;2022-12-05T05:33:30;101680.78;;;4.19;100.00
5966;BME280;3009;43.224;27.976;2022-12-05T05:36:01;101689.31;;;4.21;100.00
5966;BME280;3009;43.224;27.976;2022-12-05T05:38:34;101675.59;;;4.12;100.00
5966;BME280;3009;43.224;27.976;2022-12-05T05:41:03;101677.09;;;4.20;100.00
5966;BME280;3009;43.224;27.976;2022-12-05T05:43:31;101671.66;;;4.15;100.00
5966;BME280;3009;43.224;27.976;2022-12-05T05:46:02;101681.34;;;4.21;100.00
5966;BME280;3009;43.224;27.976;2022-12-05T05:48:31;101677.34;;;4.18;100.00
5966;BME280;3009;43.224;27.976;2022-12-05T05:51:00;101684.59;;;4.23;100.00
5966;BME280;3009;43.224;27.976;2022-12-05T05:53:28;101689.66;;;4.36;100.00
5966;BME280;3009;43.224;27.976;2022-12-05T05:56:01;101669.69;;;4.34;100.00
5966;BME280;3009;43.224;27.976;2022-12-05T05:58:29;101688.84;;;4.24;100.00
5966;BME280;3009;43.224;27.976;2022-12-05T06:01:02;101683.53;;;4.24;100.00
5966;BME280;3009;43.224;27.976;2022-12-05T06:03:30;101684.59;;;4.23;100.00
5966;BME280;3009;43.224;27.976;2022-12-05T06:05:59;101675.00;;;4.22;100.00
5966;BME280;3009;43.224;27.976;2022-12-05T06:08:28;101680.47;;;4.15;100.00
5966;BME280;3009;43.224;27.976;2022-12-05T06:10:58;101680.78;;;4.19;100.00
5966;BME280;3009;43.224;27.976;2022-12-05T06:13:26;101687.59;;;4.15;100.00
5966;BME280;3009;43.224;27.976;2022-12-05T06:15:54;101696.00;;;4.23;100.00
5966;BME280;3009;43.224;27.976;2022-12-05T06:18:23;101679.28;;;4.23;100.00
5966;BME280;3009;43.224;27.976;2022-12-05T06:20:51;101680.47;;;4.15;100.00
5966;BME280;3009;43.224;27.976;2022-12-05T06:23:20;101683.06;;;4.27;100.00
5966;BME280;3009;43.224;27.976;2022-12-05T06:25:49;101696.94;;;4.29;100.00
5966;BME280;3009;43.224;27.976;2022-12-05T06:28:20;101693.00;;;4.32;100.00
5966;BME280;3009;43.224;27.976;2022-12-05T06:30:48;101698.66;;;4.35;100.00
5966;BME280;3009;43.224;27.976;2022-12-05T06:33:17;101697.84;;;4.35;100.00
5966;BME280;3009;43.224;27.976;2022-12-05T06:35:45;101705.00;;;4.34;100.00
5966;BME280;3009;43.224;27.976;2022-12-05T06:38:14;101702.00;;;4.31;100.00
5966;BME280;3009;43.224;27.976;2022-12-05T06:40:43;101697.50;;;4.43;100.00
5966;BME280;3009;43.224;27.976;2022-12-05T06:43:12;101708.81;;;4.50;100.00
5966;BME280;3009;43.224;27.976;2022-12-05T06:45:41;101699.91;;;4.44;100.00
5966;BME280;3009;43.224;27.976;2022-12-05T06:48:09;101698.88;;;4.46;100.00
5966;BME280;3009;43.224;27.976;2022-12-05T06:50:38;101726.56;;;4.50;100.00
5966;BME280;3009;43.224;27.976;2022-12-05T06:53:06;101716.06;;;4.55;100.00
5966;BME280;3009;43.224;27.976;2022-12-05T06:55:34;101707.72;;;4.63;100.00
5966;BME280;3009;43.224;27.976;2022-12-05T06:58:02;101700.44;;;4.70;100.00
5966;BME280;3009;43.224;27.976;2022-12-05T07:00:30;101713.47;;;4.72;100.00
5966;BME280;3009;43.224;27.976;2022-12-05T07:03:17;101709.56;;;4.74;100.00
5966;BME280;3009;43.224;27.976;2022-12-05T07:05:45;101719.72;;;4.77;100.00
5966;BME280;3009;43.224;27.976;2022-12-05T07:08:14;101713.22;;;4.85;100.00
5966;BME280;3009;43.224;27.976;2022-12-05T07:10:49;101717.53;;;5.03;100.00
5966;BME280;3009;43.224;27.976;2022-12-05T07:13:18;101715.84;;;4.97;100.00
5966;BME280;3009;43.224;27.976;2022-12-05T07:15:46;101718.84;;;5.18;100.00
5966;BME280;3009;43.224;27.976;2022-12-05T07:18:17;101717.16;;;5.11;100.00
5966;BME280;3009;43.224;27.976;2022-12-05T07:20:55;101712.75;;;5.17;100.00
5966;BME280;3009;43.224;27.976;2022-12-05T07:23:40;101723.88;;;5.31;100.00
5966;BME280;3009;43.224;27.976;2022-12-05T07:26:11;101717.13;;;5.40;100.00
5966;BME280;3009;43.224;27.976;2022-12-05T07:28:39;101716.00;;;5.36;100.00
5966;BME280;3009;43.224;27.976;2022-12-05T07:31:09;101701.41;;;5.39;100.00
5966;BME280;3009;43.224;27.976;2022-12-05T07:33:40;101704.88;;;5.39;100.00
5966;BME280;3009;43.224;27.976;2022-12-05T07:36:10;101721.97;;;5.43;100.00
5966;BME280;3009;43.224;27.976;2022-12-05T07:38:39;101723.44;;;5.51;100.00
5966;BME280;3009;43.224;27.976;2022-12-05T07:41:08;101715.53;;;5.56;100.00
5966;BME280;3009;43.224;27.976;2022-12-05T07:43:39;101719.16;;;5.50;100.00
5966;BME280;3009;43.224;27.976;2022-12-05T07:46:08;101711.25;;;5.55;100.00
5966;BME280;3009;43.224;27.976;2022-12-05T07:48:39;101715.69;;;5.49;100.00
5966;BME280;3009;43.224;27.976;2022-12-05T07:51:09;101731.56;;;5.44;100.00
5966;BME280;3009;43.224;27.976;2022-12-05T07:53:38;101726.31;;;5.49;100.00
5966;BME280;3009;43.224;27.976;2022-12-05T07:56:07;101731.84;;;5.31;100.00
5966;BME280;3009;43.224;27.976;2022-12-05T07:58:36;101739.16;;;5.24;100.00
5966;BME280;3009;43.224;27.976;2022-12-05T08:01:06;101735.41;;;5.37;100.00
5966;BME280;3009;43.224;27.976;2022-12-05T08:03:34;101737.59;;;5.40;100.00
5966;BME280;3009;43.224;27.976;2022-12-05T08:06:06;101734.28;;;5.49;100.00
5966;BME280;3009;43.224;27.976;2022-12-05T08:08:35;101728.34;;;5.42;100.00
5966;BME280;3009;43.224;27.976;2022-12-05T08:11:04;101739.53;;;5.44;100.00
5966;BME280;3009;43.224;27.976;2022-12-05T08:13:33;101745.25;;;5.36;100.00
5966;BME280;3009;43.224;27.976;2022-12-05T08:16:02;101727.91;;;5.33;100.00
5966;BME280;3009;43.224;27.976;2022-12-05T08:18:30;101737.13;;;5.43;100.00
5966;BME280;3009;43.224;27.976;2022-12-05T08:21:02;101735.25;;;5.43;100.00
5966;BME280;3009;43.224;27.976;2022-12-05T08:23:32;101728.41;;;5.47;100.00
5966;BME280;3009;43.224;27.976;2022-12-05T08:26:01;101728.03;;;5.56;100.00
5966;BME280;3009;43.224;27.976;2022-12-05T08:28:30;101724.84;;;5.42;100.00
5966;BME280;3009;43.224;27.976;2022-12-05T08:31:03;101727.63;;;5.47;100.00
5966;BME280;3009;43.224;27.976;2022-12-05T08:33:32;101717.97;;;5.58;100.00
5966;BME280;3009;43.224;27.976;2022-12-05T08:36:02;101717.47;;;5.61;100.00
5966;BME280;3009;43.224;27.976;2022-12-05T08:38:32;101732.53;;;5.55;100.00
5966;BME280;3009;43.224;27.976;2022-12-05T08:41:01;101713.34;;;5.53;100.00
5966;BME280;3009;43.224;27.976;2022-12-05T08:43:30;101729.25;;;5.65;100.00
5966;BME280;3009;43.224;27.976;2022-12-05T08:45:59;101723.34;;;5.63;100.00
5966;BME280;3009;43.224;27.976;2022-12-05T08:48:29;101716.25;;;5.68;100.00
5966;BME280;3009;43.224;27.976;2022-12-05T08:50:58;101716.81;;;5.71;100.00
5966;BME280;3009;43.224;27.976;2022-12-05T08:53:32;101709.06;;;5.69;100.00
5966;BME280;3009;43.224;27.976;2022-12-05T08:56:09;101711.84;;;5.74;100.00
5966;BME280;3009;43.224;27.976;2022-12-05T08:58:38;101708.69;;;5.77;100.00
5966;BME280;3009;43.224;27.976;2022-12-05T09:01:07;101701.06;;;5.98;100.00
5966;BME280;3009;43.224;27.976;2022-12-05T09:03:36;101713.44;;;6.09;100.00
5966;BME280;3009;43.224;27.976;2022-12-05T09:06:13;101728.78;;;6.02;100.00
5966;BME280;3009;43.224;27.976;2022-12-05T09:08:44;101703.09;;;5.96;100.00
5966;BME280;3009;43.224;27.976;2022-12-05T09:11:16;101705.16;;;6.06;100.00
5966;BME280;3009;43.224;27.976;2022-12-05T09:13:45;101713.69;;;6.08;100.00
5966;BME280;3009;43.224;27.976;2022-12-05T09:16:16;101706.38;;;5.98;100.00
5966;BME280;3009;43.224;27.976;2022-12-05T09:18:45;101704.56;;;6.03;100.00
5966;BME280;3009;43.224;27.976;2022-12-05T09:21:15;101705.88;;;6.01;100.00
5966;BME280;3009;43.224;27.976;2022-12-05T09:23:46;101701.06;;;5.98;100.00
5966;BME280;3009;43.224;27.976;2022-12-05T09:26:17;101706.81;;;5.95;100.00
5966;BME280;3009;43.224;27.976;2022-12-05T09:28:46;101694.56;;;5.94;100.00
5966;BME280;3009;43.224;27.976;2022-12-05T09:31:16;101693.38;;;6.01;100.00
5966;BME280;3009;43.224;27.976;2022-12-05T09:33:45;101698.81;;;5.95;100.00
5966;BME280;3009;43.224;27.976;2022-12-05T09:36:16;101687.31;;;6.06;100.00
5966;BME280;3009;43.224;27.976;2022-12-05T09:38:46;101684.59;;;6.23;100.00
5966;BME280;3009;43.224;27.976;2022-12-05T09:41:24;101681.31;;;6.16;99.93
5966;BME280;3009;43.224;27.976;2022-12-05T09:44:17;101692.03;;;6.21;100.00
5966;BME280;3009;43.224;27.976;2022-12-05T09:46:53;101683.94;;;6.33;99.43
5966;BME280;3009;43.224;27.976;2022-12-05T09:49:23;101673.22;;;6.50;97.52
5966;BME280;3009;43.224;27.976;2022-12-05T09:51:53;101693.78;;;6.54;96.52
5966;BME280;3009;43.224;27.976;2022-12-05T09:54:24;101677.63;;;6.39;95.57
5966;BME280;3009;43.224;27.976;2022-12-05T09:56:53;101670.38;;;6.34;97.56
5966;BME280;3009;43.224;27.976;2022-12-05T09:59:21;101682.97;;;6.39;97.65
5966;BME280;3009;43.224;27.976;2022-12-05T10:01:54;101677.25;;;6.52;96.13
5966;BME280;3009;43.224;27.976;2022-12-05T10:04:40;101685.66;;;6.44;96.73
5966;BME280;3009;43.224;27.976;2022-12-05T10:07:18;101679.22;;;6.62;95.26
5966;BME280;3009;43.224;27.976;2022-12-05T10:10:02;101679.97;;;6.57;94.70
5966;BME280;3009;43.224;27.976;2022-12-05T10:12:44;101676.09;;;6.43;94.19
5966;BME280;3009;43.224;27.976;2022-12-05T10:15:25;101673.41;;;6.43;94.74
5966;BME280;3009;43.224;27.976;2022-12-05T10:17:58;101671.84;;;6.47;94.39
5966;BME280;3009;43.224;27.976;2022-12-05T10:20:31;101676.38;;;6.47;93.86
5966;BME280;3009;43.224;27.976;2022-12-05T10:23:04;101657.84;;;6.35;94.83
5966;BME280;3009;43.224;27.976;2022-12-05T10:25:36;101660.88;;;6.21;95.35
5966;BME280;3009;43.224;27.976;2022-12-05T10:28:11;101664.88;;;6.19;95.10
5966;BME280;3009;43.224;27.976;2022-12-05T10:30:44;101664.41;;;6.27;95.34
5966;BME280;3009;43.224;27.976;2022-12-05T10:33:17;101658.34;;;6.32;94.38
5966;BME280;3009;43.224;27.976;2022-12-05T10:35:48;101664.47;;;6.32;95.04
5966;BME280;3009;43.224;27.976;2022-12-05T10:38:23;101655.75;;;6.37;93.92
5966;BME280;3009;43.224;27.976;2022-12-05T10:40:57;101652.94;;;6.49;94.18
5966;BME280;3009;43.224;27.976;2022-12-05T10:43:28;101652.34;;;6.42;94.51
5966;BME280;3009;43.224;27.976;2022-12-05T10:45:57;101646.28;;;6.46;93.66
5966;BME280;3009;43.224;27.976;2022-12-05T10:48:26;101643.97;;;6.55;93.00
5966;BME280;3009;43.224;27.976;2022-12-05T10:50:55;101652.41;;;6.69;92.45
5966;BME280;3009;43.224;27.976;2022-12-05T10:53:26;101639.78;;;6.64;92.76
5966;BME280;3009;43.224;27.976;2022-12-05T10:55:56;101641.91;;;6.62;92.97
5966;BME280;3009;43.224;27.976;2022-12-05T10:58:53;101638.06;;;6.75;92.96
5966;BME280;3009;43.224;27.976;2022-12-05T11:01:23;101631.22;;;6.84;91.34
5966;BME280;3009;43.224;27.976;2022-12-05T11:03:55;101631.66;;;6.76;91.59
5966;BME280;3009;43.224;27.976;2022-12-05T11:06:25;101620.09;;;6.92;91.50
5966;BME280;3009;43.224;27.976;2022-12-05T11:08:56;101624.16;;;6.73;92.55
5966;BME280;3009;43.224;27.976;2022-12-05T11:11:33;101622.75;;;6.65;93.10
5966;BME280;3009;43.224;27.976;2022-12-05T11:14:04;101623.00;;;6.91;92.69
5966;BME280;3009;43.224;27.976;2022-12-05T11:16:34;101616.66;;;6.97;92.59
5966;BME280;3009;43.224;27.976;2022-12-05T11:19:18;101615.34;;;6.95;92.97
5966;BME280;3009;43.224;27.976;2022-12-05T11:21:51;101620.53;;;7.12;91.50
5966;BME280;3009;43.224;27.976;2022-12-05T11:24:21;101613.16;;;6.91;91.49
5966;BME280;3009;43.224;27.976;2022-12-05T11:26:52;101621.47;;;6.95;90.71
5966;BME280;3009;43.224;27.976;2022-12-05T11:29:32;101615.00;;;6.91;91.47
5966;BME280;3009;43.224;27.976;2022-12-05T11:32:02;101608.72;;;7.02;92.22
5966;BME280;3009;43.224;27.976;2022-12-05T11:34:36;101611.66;;;7.01;91.29
5966;BME280;3009;43.224;27.976;2022-12-05T11:37:11;101614.84;;;7.03;91.25
5966;BME280;3009;43.224;27.976;2022-12-05T11:39:40;101601.88;;;7.12;90.69
5966;BME280;3009;43.224;27.976;2022-12-05T11:42:30;101607.38;;;7.00;92.07
5966;BME280;3009;43.224;27.976;2022-12-05T11:45:23;101609.31;;;7.09;91.64
5966;BME280;3009;43.224;27.976;2022-12-05T11:48:14;101597.56;;;7.05;91.69
5966;BME280;3009;43.224;27.976;2022-12-05T11:50:51;101593.84;;;6.79;92.74
5966;BME280;3009;43.224;27.976;2022-12-05T11:53:44;101589.50;;;6.73;92.43
5966;BME280;3009;43.224;27.976;2022-12-05T11:56:22;101596.00;;;6.82;93.53
5966;BME280;3009;43.224;27.976;2022-12-05T11:59:15;101586.94;;;6.83;93.29
5966;BME280;3009;43.224;27.976;2022-12-05T12:01:57;101589.97;;;6.65;94.13
5966;BME280;3009;43.224;27.976;2022-12-05T12:04:43;101592.94;;;6.68;94.42
5966;BME280;3009;43.224;27.976;2022-12-05T12:07:38;101589.31;;;6.80;94.67
5966;BME280;3009;43.224;27.976;2022-12-05T12:10:18;101592.13;;;6.68;94.66
5966;BME280;3009;43.224;27.976;2022-12-05T12:12:59;101590.53;;;6.67;94.90
5966;BME280;3009;43.224;27.976;2022-12-05T12:15:56;101586.31;;;6.71;94.74
5966;BME280;3009;43.224;27.976;2022-12-05T12:21:50;101579.34;;;6.70;94.34
5966;BME280;3009;43.224;27.976;2022-12-05T12:24:28;101571.94;;;6.72;94.21
5966;BME280;3009;43.224;27.976;2022-12-05T12:27:05;101574.53;;;6.67;94.83
5966;BME280;3009;43.224;27.976;2022-12-05T12:29:50;101576.78;;;6.80;94.18
5966;BME280;3009;43.224;27.976;2022-12-05T12:32:30;101572.13;;;6.65;95.07
5966;BME280;3009;43.224;27.976;2022-12-05T12:35:16;101566.59;;;6.72;95.28
5966;BME280;3009;43.224;27.976;2022-12-05T12:38:16;101566.09;;;6.75;95.71
5966;BME280;3009;43.224;27.976;2022-12-05T12:40:50;101560.16;;;6.68;96.61
5966;BME280;3009;43.224;27.976;2022-12-05T12:43:36;101562.06;;;6.72;96.49
5966;BME280;3009;43.224;27.976;2022-12-05T12:46:26;101560.16;;;6.68;97.09
5966;BME280;3009;43.224;27.976;2022-12-05T12:49:07;101568.91;;;6.63;97.10
5966;BME280;3009;43.224;27.976;2022-12-05T12:51:44;101573.66;;;6.61;97.09
5966;BME280;3009;43.224;27.976;2022-12-05T12:54:23;101574.53;;;6.67;96.88
5966;BME280;3009;43.224;27.976;2022-12-05T12:57:20;101561.78;;;6.69;96.38
5966;BME280;3009;43.224;27.976;2022-12-05T13:00:00;101557.34;;;6.80;96.28
5966;BME280;3009;43.224;27.976;2022-12-05T13:02:35;101557.91;;;6.54;97.14
5966;BME280;3009;43.224;27.976;2022-12-05T13:05:18;101559.50;;;6.55;97.17
5966;BME280;3009;43.224;27.976;2022-12-05T13:07:50;101557.03;;;6.49;97.69
5966;BME280;3009;43.224;27.976;2022-12-05T13:10:25;101561.69;;;6.59;97.85
5966;BME280;3009;43.224;27.976;2022-12-05T13:12:56;101564.47;;;6.47;98.32
5966;BME280;3009;43.224;27.976;2022-12-05T13:15:32;101555.72;;;6.51;98.08
5966;BME280;3009;43.224;27.976;2022-12-05T13:18:04;101555.00;;;6.34;99.07
5966;BME280;3009;43.224;27.976;2022-12-05T13:20:34;101561.66;;;6.31;99.62
5966;BME280;3009;43.224;27.976;2022-12-05T13:23:03;101549.59;;;6.24;100.00
5966;BME280;3009;43.224;27.976;2022-12-05T13:25:35;101563.66;;;6.19;100.00
5966;BME280;3009;43.224;27.976;2022-12-05T13:28:17;101551.25;;;6.08;100.00
5966;BME280;3009;43.224;27.976;2022-12-05T13:30:52;101569.84;;;6.02;100.00
5966;BME280;3009;43.224;27.976;2022-12-05T13:33:34;101557.38;;;6.08;100.00
5966;BME280;3009;43.224;27.976;2022-12-05T13:36:09;101565.13;;;6.10;100.00
5966;BME280;3009;43.224;27.976;2022-12-05T13:39:00;101555.84;;;6.12;100.00
5966;BME280;3009;43.224;27.976;2022-12-05T13:41:49;101557.50;;;6.18;100.00
5966;BME280;3009;43.224;27.976;2022-12-05T13:44:39;101552.69;;;6.15;100.00
5966;BME280;3009;43.224;27.976;2022-12-05T13:47:23;101555.09;;;6.17;100.00